sensor_id;sensor_type;location;lat;lon;timestamp;temperature;humidity
23069;DHT22;11702;50.856;4.348;2023-04-24T08:34:36;10.80;99.90
23069;DHT22;11702;50.856;4.348;2023-04-24T08:37:04;11.00;99.90
23069;DHT22;11702;50.856;4.348;2023-04-24T08:39:29;11.20;99.90
23069;DHT22;11702;50.856;4.348;2023-04-24T08:42:02;11.30;99.90
23069;DHT22;11702;50.856;4.348;2023-04-24T08:44:35;11.30;99.90
23069;DHT22;11702;50.856;4.348;2023-04-24T08:47:08;11.30;99.90
23069;DHT22;11702;50.856;4.348;2023-04-24T08:49:37;11.30;99.90
23069;DHT22;11702;50.856;4.348;2023-04-24T08:52:04;11.40;99.90
23069;DHT22;11702;50.856;4.348;2023-04-24T08:54:56;11.60;99.90
23069;DHT22;11702;50.856;4.348;2023-04-24T08:57:30;11.80;99.90
23069;DHT22;11702;50.856;4.348;2023-04-24T08:59:57;11.80;99.90
23069;DHT22;11702;50.856;4.348;2023-04-24T09:02:23;12.10;99.90
23069;DHT22;11702;50.856;4.348;2023-04-24T09:04:50;12.30;99.90
23069;DHT22;11702;50.856;4.348;2023-04-24T09:07:21;12.50;99.90
23069;DHT22;11702;50.856;4.348;2023-04-24T09:09:48;12.60;99.90
23069;DHT22;11702;50.856;4.348;2023-04-24T09:12:17;12.40;99.90
23069;DHT22;11702;50.856;4.348;2023-04-24T09:14:46;12.40;99.90
23069;DHT22;11702;50.856;4.348;2023-04-24T09:17:14;12.60;99.90
23069;DHT22;11702;50.856;4.348;2023-04-24T09:19:41;12.60;99.90
23069;DHT22;11702;50.856;4.348;2023-04-24T09:22:08;12.50;99.90
23069;DHT22;11702;50.856;4.348;2023-04-24T09:24:34;12.50;99.90
23069;DHT22;11702;50.856;4.348;2023-04-24T09:27:04;12.30;99.90
23069;DHT22;11702;50.856;4.348;2023-04-24T09:29:30;12.20;99.90
23069;DHT22;11702;50.856;4.348;2023-04-24T09:31:57;12.00;99.90
23069;DHT22;11702;50.856;4.348;2023-04-24T09:34:24;11.90;99.90
23069;DHT22;11702;50.856;4.348;2023-04-24T09:36:50;11.90;99.90
23069;DHT22;11702;50.856;4.348;2023-04-24T09:39:17;12.00;99.90
23069;DHT22;11702;50.856;4.348;2023-04-24T09:41:48;11.90;99.90
23069;DHT22;11702;50.856;4.348;2023-04-24T09:46:50;12.20;99.90
23069;DHT22;11702;50.856;4.348;2023-04-24T09:49:21;12.60;99.90
23069;DHT22;11702;50.856;4.348;2023-04-24T09:51:48;13.00;99.90
23069;DHT22;11702;50.856;4.348;2023-04-24T09:54:16;13.30;99.90
23069;DHT22;11702;50.856;4.348;2023-04-24T09:56:51;12.90;99.90
23069;DHT22;11702;50.856;4.348;2023-04-24T09:59:18;12.80;99.90
23069;DHT22;11702;50.856;4.348;2023-04-24T10:01:44;13.00;99.90
23069;DHT22;11702;50.856;4.348;2023-04-24T10:04:20;13.30;99.90
23069;DHT22;11702;50.856;4.348;2023-04-24T10:06:47;13.60;99.90
23069;DHT22;11702;50.856;4.348;2023-04-24T10:09:17;13.80;99.90
23069;DHT22;11702;50.856;4.348;2023-04-24T10:11:45;13.90;99.90
23069;DHT22;11702;50.856;4.348;2023-04-24T10:14:14;13.80;99.90
23069;DHT22;11702;50.856;4.348;2023-04-24T10:16:40;13.60;99.90
23069;DHT22;11702;50.856;4.348;2023-04-24T10:19:07;13.80;99.90
23069;DHT22;11702;50.856;4.348;2023-04-24T10:21:34;13.70;99.90
23069;DHT22;11702;50.856;4.348;2023-04-24T10:24:00;13.60;99.90
23069;DHT22;11702;50.856;4.348;2023-04-24T10:26:31;13.20;99.90
23069;DHT22;11702;50.856;4.348;2023-04-24T10:28:58;13.00;99.90
23069;DHT22;11702;50.856;4.348;2023-04-24T10:31:24;13.00;99.90
23069;DHT22;11702;50.856;4.348;2023-04-24T10:33:51;12.80;99.90
23069;DHT22;11702;50.856;4.348;2023-04-24T10:36:18;13.00;99.90
23069;DHT22;11702;50.856;4.348;2023-04-24T10:38:47;13.20;99.90
23069;DHT22;11702;50.856;4.348;2023-04-24T10:41:15;13.50;99.90
23069;DHT22;11702;50.856;4.348;2023-04-24T10:43:45;13.80;99.90
23069;DHT22;11702;50.856;4.348;2023-04-24T10:46:19;14.10;99.90
23069;DHT22;11702;50.856;4.348;2023-04-24T10:48:54;14.10;99.90
23069;DHT22;11702;50.856;4.348;2023-04-24T10:51:22;13.90;99.90
23069;DHT22;11702;50.856;4.348;2023-04-24T10:53:52;13.90;99.90
23069;DHT22;11702;50.856;4.348;2023-04-24T10:56:18;13.80;99.90
23069;DHT22;11702;50.856;4.348;2023-04-24T10:58:50;13.70;99.90
23069;DHT22;11702;50.856;4.348;2023-04-24T11:01:37;13.80;99.90
23069;DHT22;11702;50.856;4.348;2023-04-24T11:04:03;13.70;99.90
23069;DHT22;11702;50.856;4.348;2023-04-24T11:06:32;13.70;99.90
23069;DHT22;11702;50.856;4.348;2023-04-24T11:09:08;13.80;99.90
23069;DHT22;11702;50.856;4.348;2023-04-24T11:11:36;13.90;99.90
23069;DHT22;11702;50.856;4.348;2023-04-24T11:14:05;13.70;99.90
23069;DHT22;11702;50.856;4.348;2023-04-24T11:16:51;13.60;99.90
23069;DHT22;11702;50.856;4.348;2023-04-24T11:19:25;13.50;99.90
23069;DHT22;11702;50.856;4.348;2023-04-24T11:22:02;13.50;99.90
23069;DHT22;11702;50.856;4.348;2023-04-24T11:24:48;13.60;99.90
23069;DHT22;11702;50.856;4.348;2023-04-24T11:27:16;13.90;99.90
23069;DHT22;11702;50.856;4.348;2023-04-24T11:29:58;14.00;99.90
23069;DHT22;11702;50.856;4.348;2023-04-24T11:37:38;14.40;99.90
23069;DHT22;11702;50.856;4.348;2023-04-24T11:40:10;14.50;99.90
23069;DHT22;11702;50.856;4.348;2023-04-24T11:42:37;14.70;99.90
23069;DHT22;11702;50.856;4.348;2023-04-24T11:47:33;14.90;99.90
23069;DHT22;11702;50.856;4.348;2023-04-24T11:50:00;14.90;99.90
23069;DHT22;11702;50.856;4.348;2023-04-24T11:52:27;14.90;99.90
23069;DHT22;11702;50.856;4.348;2023-04-24T11:54:53;15.00;99.90
23069;DHT22;11702;50.856;4.348;2023-04-24T11:57:24;15.30;99.90
23069;DHT22;11702;50.856;4.348;2023-04-24T11:59:53;15.70;99.90
23069;DHT22;11702;50.856;4.348;2023-04-24T12:02:23;15.90;99.90
23069;DHT22;11702;50.856;4.348;2023-04-24T12:04:51;16.20;99.90
23069;DHT22;11702;50.856;4.348;2023-04-24T12:07:19;16.30;99.90
23069;DHT22;11702;50.856;4.348;2023-04-24T12:09:46;16.30;99.90
23069;DHT22;11702;50.856;4.348;2023-04-24T12:12:14;15.90;99.90
23069;DHT22;11702;50.856;4.348;2023-04-24T12:14:45;15.90;99.90
23069;DHT22;11702;50.856;4.348;2023-04-24T12:17:23;15.80;99.90
23069;DHT22;11702;50.856;4.348;2023-04-24T12:19:49;15.30;99.90
23069;DHT22;11702;50.856;4.348;2023-04-24T12:22:16;14.60;99.90
23069;DHT22;11702;50.856;4.348;2023-04-24T12:25:03;14.30;99.90
23069;DHT22;11702;50.856;4.348;2023-04-24T12:27:31;14.30;99.90
23069;DHT22;11702;50.856;4.348;2023-04-24T12:29:59;14.20;99.90
23069;DHT22;11702;50.856;4.348;2023-04-24T12:32:26;14.30;99.90
23069;DHT22;11702;50.856;4.348;2023-04-24T12:34:52;14.20;99.90
23069;DHT22;11702;50.856;4.348;2023-04-24T12:37:19;14.30;99.90
23069;DHT22;11702;50.856;4.348;2023-04-24T12:40:09;14.00;99.90
23069;DHT22;11702;50.856;4.348;2023-04-24T12:42:48;13.60;99.90
23069;DHT22;11702;50.856;4.348;2023-04-24T12:45:15;13.30;99.90
23069;DHT22;11702;50.856;4.348;2023-04-24T12:47:43;13.00;99.90
23069;DHT22;11702;50.856;4.348;2023-04-24T12:50:11;12.90;99.90
23069;DHT22;11702;50.856;4.348;2023-04-24T12:52:37;12.90;99.90
23069;DHT22;11702;50.856;4.348;2023-04-24T12:55:05;13.00;99.90
23069;DHT22;11702;50.856;4.348;2023-04-24T12:57:34;13.50;99.90
23069;DHT22;11702;50.856;4.348;2023-04-24T13:00:00;13.80;99.90
23069;DHT22;11702;50.856;4.348;2023-04-24T13:02:29;13.80;99.90
23069;DHT22;11702;50.856;4.348;2023-04-24T13:04:57;14.10;99.90
23069;DHT22;11702;50.856;4.348;2023-04-24T13:07:35;14.50;99.90
23069;DHT22;11702;50.856;4.348;2023-04-24T13:10:04;14.90;99.90
23069;DHT22;11702;50.856;4.348;2023-04-24T13:12:30;14.70;99.90
23069;DHT22;11702;50.856;4.348;2023-04-24T13:14:57;14.40;99.90
23069;DHT22;11702;50.856;4.348;2023-04-24T13:17:23;14.10;99.90
23069;DHT22;11702;50.856;4.348;2023-04-24T13:19:50;14.10;99.90
23069;DHT22;11702;50.856;4.348;2023-04-24T13:22:17;14.00;99.90
23069;DHT22;11702;50.856;4.348;2023-04-24T13:24:46;14.10;99.90
23069;DHT22;11702;50.856;4.348;2023-04-24T13:27:34;14.10;99.90
23069;DHT22;11702;50.856;4.348;2023-04-24T13:30:00;14.20;99.90
23069;DHT22;11702;50.856;4.348;2023-04-24T13:32:26;14.20;99.90
23069;DHT22;11702;50.856;4.348;2023-04-24T13:34:54;14.40;99.90
23069;DHT22;11702;50.856;4.348;2023-04-24T13:37:19;14.70;99.90
23069;DHT22;11702;50.856;4.348;2023-04-24T13:39:48;15.00;99.90
23069;DHT22;11702;50.856;4.348;2023-04-24T13:42:16;14.70;99.90
23069;DHT22;11702;50.856;4.348;2023-04-24T13:44:42;14.40;99.90
23069;DHT22;11702;50.856;4.348;2023-04-24T13:47:10;14.10;99.90
23069;DHT22;11702;50.856;4.348;2023-04-24T13:49:36;14.20;99.90
23069;DHT22;11702;50.856;4.348;2023-04-24T13:52:01;14.10;99.90
23069;DHT22;11702;50.856;4.348;2023-04-24T13:54:27;14.10;99.90
23069;DHT22;11702;50.856;4.348;2023-04-24T13:56:57;14.30;99.90
23069;DHT22;11702;50.856;4.348;2023-04-24T13:59:33;14.60;99.90
23069;DHT22;11702;50.856;4.348;2023-04-24T14:01:59;15.00;99.90
23069;DHT22;11702;50.856;4.348;2023-04-24T14:04:25;15.10;99.90
23069;DHT22;11702;50.856;4.348;2023-04-24T14:06:51;15.10;99.90
23069;DHT22;11702;50.856;4.348;2023-04-24T14:09:16;15.10;99.90
23069;DHT22;11702;50.856;4.348;2023-04-24T14:11:42;14.90;99.90
23069;DHT22;11702;50.856;4.348;2023-04-24T14:14:08;14.80;99.90
23069;DHT22;11702;50.856;4.348;2023-04-24T14:16:35;14.60;99.90
23069;DHT22;11702;50.856;4.348;2023-04-24T14:19:01;14.30;99.90
23069;DHT22;11702;50.856;4.348;2023-04-24T14:21:27;14.30;99.90
23069;DHT22;11702;50.856;4.348;2023-04-24T14:23:52;14.50;99.90
23069;DHT22;11702;50.856;4.348;2023-04-24T14:26:19;14.60;99.90
23069;DHT22;11702;50.856;4.348;2023-04-24T14:28:45;14.70;99.90
23069;DHT22;11702;50.856;4.348;2023-04-24T14:31:12;14.80;99.90
23069;DHT22;11702;50.856;4.348;2023-04-24T14:33:38;14.40;99.90
23069;DHT22;11702;50.856;4.348;2023-04-24T14:36:07;14.00;99.90
23069;DHT22;11702;50.856;4.348;2023-04-24T14:38:33;13.60;99.90
23069;DHT22;11702;50.856;4.348;2023-04-24T14:56:27;13.10;99.90
23069;DHT22;11702;50.856;4.348;2023-04-24T14:58:53;13.30;99.90
23069;DHT22;11702;50.856;4.348;2023-04-24T15:01:19;13.50;99.90
23069;DHT22;11702;50.856;4.348;2023-04-24T15:03:44;13.70;99.90
23069;DHT22;11702;50.856;4.348;2023-04-24T15:06:11;13.70;99.90
23069;DHT22;11702;50.856;4.348;2023-04-24T15:08:36;13.80;99.90
23069;DHT22;11702;50.856;4.348;2023-04-24T15:11:02;14.00;99.90
23069;DHT22;11702;50.856;4.348;2023-04-24T15:13:28;13.90;99.90
23069;DHT22;11702;50.856;4.348;2023-04-24T15:15:54;13.90;99.90
23069;DHT22;11702;50.856;4.348;2023-04-24T15:18:21;13.70;99.90
23069;DHT22;11702;50.856;4.348;2023-04-24T15:20:46;13.60;99.90
23069;DHT22;11702;50.856;4.348;2023-04-24T15:23:12;13.60;99.90
23069;DHT22;11702;50.856;4.348;2023-04-24T15:25:38;13.50;99.90
23069;DHT22;11702;50.856;4.348;2023-04-24T15:28:04;13.50;99.90
23069;DHT22;11702;50.856;4.348;2023-04-24T15:30:33;13.40;99.90
23069;DHT22;11702;50.856;4.348;2023-04-24T15:33:00;13.20;99.90
23069;DHT22;11702;50.856;4.348;2023-04-24T15:35:26;13.20;99.90
23069;DHT22;11702;50.856;4.348;2023-04-24T15:37:51;13.10;99.90
23069;DHT22;11702;50.856;4.348;2023-04-24T15:40:17;13.00;99.90
23069;DHT22;11702;50.856;4.348;2023-04-24T15:42:44;12.90;99.90
23069;DHT22;11702;50.856;4.348;2023-04-24T15:45:10;12.80;99.90
23069;DHT22;11702;50.856;4.348;2023-04-24T15:47:37;12.80;99.90
23069;DHT22;11702;50.856;4.348;2023-04-24T15:50:03;12.80;99.90
23069;DHT22;11702;50.856;4.348;2023-04-24T15:52:29;12.80;99.90
23069;DHT22;11702;50.856;4.348;2023-04-24T15:54:55;12.80;99.90
23069;DHT22;11702;50.856;4.348;2023-04-24T15:57:21;12.70;99.90
23069;DHT22;11702;50.856;4.348;2023-04-24T15:59:46;12.50;99.90
23069;DHT22;11702;50.856;4.348;2023-04-24T16:02:13;12.60;99.90
23069;DHT22;11702;50.856;4.348;2023-04-24T16:04:46;12.70;99.90
23069;DHT22;11702;50.856;4.348;2023-04-24T16:07:12;12.90;99.90
23069;DHT22;11702;50.856;4.348;2023-04-24T16:09:39;12.90;99.90
23069;DHT22;11702;50.856;4.348;2023-04-24T16:12:04;12.80;99.90
23069;DHT22;11702;50.856;4.348;2023-04-24T16:14:31;12.80;99.90
23069;DHT22;11702;50.856;4.348;2023-04-24T16:16:59;12.90;99.90
23069;DHT22;11702;50.856;4.348;2023-04-24T16:19:26;12.80;99.90
23069;DHT22;11702;50.856;4.348;2023-04-24T16:21:52;12.60;99.90
23069;DHT22;11702;50.856;4.348;2023-04-24T16:24:21;12.50;99.90
23069;DHT22;11702;50.856;4.348;2023-04-24T16:26:48;12.40;99.90
23069;DHT22;11702;50.856;4.348;2023-04-24T16:29:14;12.50;99.90
23069;DHT22;11702;50.856;4.348;2023-04-24T16:31:40;12.50;99.90
23069;DHT22;11702;50.856;4.348;2023-04-24T16:34:06;12.50;99.90
23069;DHT22;11702;50.856;4.348;2023-04-24T16:36:32;12.50;99.90
23069;DHT22;11702;50.856;4.348;2023-04-24T16:38:57;12.50;99.90
23069;DHT22;11702;50.856;4.348;2023-04-24T16:41:26;12.40;99.90
23069;DHT22;11702;50.856;4.348;2023-04-24T16:43:51;12.50;99.90
23069;DHT22;11702;50.856;4.348;2023-04-24T16:46:18;12.60;99.90
23069;DHT22;11702;50.856;4.348;2023-04-24T16:48:43;12.80;99.90
23069;DHT22;11702;50.856;4.348;2023-04-24T16:51:09;12.90;99.90
23069;DHT22;11702;50.856;4.348;2023-04-24T16:53:38;13.10;99.90
23069;DHT22;11702;50.856;4.348;2023-04-24T16:56:03;13.00;99.90
23069;DHT22;11702;50.856;4.348;2023-04-24T16:58:30;12.90;99.90
23069;DHT22;11702;50.856;4.348;2023-04-24T17:00:56;13.00;99.90
23069;DHT22;11702;50.856;4.348;2023-04-24T17:03:22;13.00;99.90
23069;DHT22;11702;50.856;4.348;2023-04-24T17:05:48;13.00;99.90
23069;DHT22;11702;50.856;4.348;2023-04-24T17:08:14;12.80;99.90
23069;DHT22;11702;50.856;4.348;2023-04-24T17:10:40;12.70;99.90
23069;DHT22;11702;50.856;4.348;2023-04-24T17:13:07;12.30;99.90
23069;DHT22;11702;50.856;4.348;2023-04-24T17:15:33;12.10;99.90
23069;DHT22;11702;50.856;4.348;2023-04-24T17:18:00;12.00;99.90
23069;DHT22;11702;50.856;4.348;2023-04-24T17:20:25;11.80;99.90
23069;DHT22;11702;50.856;4.348;2023-04-24T17:22:51;11.60;99.90
23069;DHT22;11702;50.856;4.348;2023-04-24T17:25:17;11.60;99.90
23069;DHT22;11702;50.856;4.348;2023-04-24T17:27:43;11.60;99.90
23069;DHT22;11702;50.856;4.348;2023-04-24T17:30:10;11.50;99.90
23069;DHT22;11702;50.856;4.348;2023-04-24T17:32:36;11.40;99.90
23069;DHT22;11702;50.856;4.348;2023-04-24T17:35:01;11.40;99.90
23069;DHT22;11702;50.856;4.348;2023-04-24T17:37:28;11.40;99.90
23069;DHT22;11702;50.856;4.348;2023-04-24T17:39:53;11.30;99.90
23069;DHT22;11702;50.856;4.348;2023-04-24T17:42:19;11.30;99.90
23069;DHT22;11702;50.856;4.348;2023-04-24T17:44:46;11.30;99.90
23069;DHT22;11702;50.856;4.348;2023-04-24T17:47:12;11.30;99.90
23069;DHT22;11702;50.856;4.348;2023-04-24T17:49:38;11.40;99.90
23069;DHT22;11702;50.856;4.348;2023-04-24T17:52:05;11.50;99.90
23069;DHT22;11702;50.856;4.348;2023-04-24T17:54:31;11.70;99.90
23069;DHT22;11702;50.856;4.348;2023-04-24T17:57:00;11.70;99.90
23069;DHT22;11702;50.856;4.348;2023-04-24T17:59:26;11.60;99.90
23069;DHT22;11702;50.856;4.348;2023-04-24T18:01:52;11.60;99.90
23069;DHT22;11702;50.856;4.348;2023-04-24T18:04:21;11.60;99.90
23069;DHT22;11702;50.856;4.348;2023-04-24T18:06:47;11.40;99.90
23069;DHT22;11702;50.856;4.348;2023-04-24T18:09:13;11.30;99.90
23069;DHT22;11702;50.856;4.348;2023-04-24T18:11:40;11.20;99.90
23069;DHT22;11702;50.856;4.348;2023-04-24T18:14:07;11.20;99.90
23069;DHT22;11702;50.856;4.348;2023-04-24T18:16:33;11.20;99.90
23069;DHT22;11702;50.856;4.348;2023-04-24T18:18:59;11.30;99.90
23069;DHT22;11702;50.856;4.348;2023-04-24T18:21:24;11.20;99.90
23069;DHT22;11702;50.856;4.348;2023-04-24T18:23:52;11.10;99.90
23069;DHT22;11702;50.856;4.348;2023-04-24T18:26:19;11.10;99.90
23069;DHT22;11702;50.856;4.348;2023-04-24T18:28:45;10.90;99.90
23069;DHT22;11702;50.856;4.348;2023-04-24T18:31:11;10.80;99.90
23069;DHT22;11702;50.856;4.348;2023-04-24T18:33:37;10.90;99.90
23069;DHT22;11702;50.856;4.348;2023-04-24T18:36:02;10.90;99.90
23069;DHT22;11702;50.856;4.348;2023-04-24T18:38:31;10.90;99.90
23069;DHT22;11702;50.856;4.348;2023-04-24T18:40:56;10.80;99.90
23069;DHT22;11702;50.856;4.348;2023-04-24T18:43:22;10.60;99.90
23069;DHT22;11702;50.856;4.348;2023-04-24T18:45:48;10.50;99.90
23069;DHT22;11702;50.856;4.348;2023-04-24T18:48:13;10.20;99.90
23069;DHT22;11702;50.856;4.348;2023-04-24T18:50:39;9.90;99.90
23069;DHT22;11702;50.856;4.348;2023-04-24T18:53:06;9.80;99.90
23069;DHT22;11702;50.856;4.348;2023-04-24T18:55:34;9.70;99.90
23069;DHT22;11702;50.856;4.348;2023-04-24T18:58:00;9.60;99.90
23069;DHT22;11702;50.856;4.348;2023-04-24T19:00:26;9.50;99.90
23069;DHT22;11702;50.856;4.348;2023-04-24T19:02:53;9.50;99.90
23069;DHT22;11702;50.856;4.348;2023-04-24T19:05:18;9.50;99.90
23069;DHT22;11702;50.856;4.348;2023-04-24T19:07:44;9.60;99.90
23069;DHT22;11702;50.856;4.348;2023-04-24T19:10:10;9.50;99.90
23069;DHT22;11702;50.856;4.348;2023-04-24T19:12:36;9.60;99.90
23069;DHT22;11702;50.856;4.348;2023-04-24T19:15:01;9.40;99.90
23069;DHT22;11702;50.856;4.348;2023-04-24T19:17:27;9.50;99.90
23069;DHT22;11702;50.856;4.348;2023-04-24T19:19:53;9.50;99.90
23069;DHT22;11702;50.856;4.348;2023-04-24T19:22:19;9.60;99.90
23069;DHT22;11702;50.856;4.348;2023-04-24T19:24:45;9.60;99.90
23069;DHT22;11702;50.856;4.348;2023-04-24T19:27:11;9.70;99.90
23069;DHT22;11702;50.856;4.348;2023-04-24T19:29:36;9.70;99.90
23069;DHT22;11702;50.856;4.348;2023-04-24T19:32:03;9.90;99.90
23069;DHT22;11702;50.856;4.348;2023-04-24T19:34:28;10.00;99.90
23069;DHT22;11702;50.856;4.348;2023-04-24T19:36:56;9.90;99.90
23069;DHT22;11702;50.856;4.348;2023-04-24T19:39:22;9.80;99.90
23069;DHT22;11702;50.856;4.348;2023-04-24T19:41:47;9.80;99.90
23069;DHT22;11702;50.856;4.348;2023-04-24T19:44:13;9.70;99.90
23069;DHT22;11702;50.856;4.348;2023-04-24T19:46:40;9.70;99.90
23069;DHT22;11702;50.856;4.348;2023-04-24T19:49:05;9.70;99.90
23069;DHT22;11702;50.856;4.348;2023-04-24T19:51:31;9.80;99.90
23069;DHT22;11702;50.856;4.348;2023-04-24T19:53:58;9.80;99.90
23069;DHT22;11702;50.856;4.348;2023-04-24T19:56:23;9.90;99.90
23069;DHT22;11702;50.856;4.348;2023-04-24T19:58:49;9.80;99.90
23069;DHT22;11702;50.856;4.348;2023-04-24T20:01:15;9.80;99.90
23069;DHT22;11702;50.856;4.348;2023-04-24T20:03:40;9.80;99.90
23069;DHT22;11702;50.856;4.348;2023-04-24T20:06:06;9.80;99.90
23069;DHT22;11702;50.856;4.348;2023-04-24T20:08:32;9.70;99.90
23069;DHT22;11702;50.856;4.348;2023-04-24T20:10:57;9.70;99.90
23069;DHT22;11702;50.856;4.348;2023-04-24T20:13:24;9.60;99.90
23069;DHT22;11702;50.856;4.348;2023-04-24T20:15:52;9.70;99.90
23069;DHT22;11702;50.856;4.348;2023-04-24T20:18:17;9.50;99.90
23069;DHT22;11702;50.856;4.348;2023-04-24T20:20:43;9.50;99.90
23069;DHT22;11702;50.856;4.348;2023-04-24T20:23:09;9.50;99.90
23069;DHT22;11702;50.856;4.348;2023-04-24T20:25:35;9.60;99.90
23069;DHT22;11702;50.856;4.348;2023-04-24T20:28:01;9.60;99.90
23069;DHT22;11702;50.856;4.348;2023-04-24T20:30:27;9.50;99.90
23069;DHT22;11702;50.856;4.348;2023-04-24T20:32:57;9.30;99.90
23069;DHT22;11702;50.856;4.348;2023-04-24T20:35:22;9.10;99.90
23069;DHT22;11702;50.856;4.348;2023-04-24T20:37:48;8.90;99.90
23069;DHT22;11702;50.856;4.348;2023-04-24T20:40:14;8.80;99.90
23069;DHT22;11702;50.856;4.348;2023-04-24T20:42:40;8.80;99.90
23069;DHT22;11702;50.856;4.348;2023-04-24T20:45:06;8.80;99.90
23069;DHT22;11702;50.856;4.348;2023-04-24T20:47:32;8.70;99.90
23069;DHT22;11702;50.856;4.348;2023-04-24T20:49:58;8.70;99.90
23069;DHT22;11702;50.856;4.348;2023-04-24T20:52:26;8.80;99.90
23069;DHT22;11702;50.856;4.348;2023-04-24T20:54:52;8.80;99.90
23069;DHT22;11702;50.856;4.348;2023-04-24T20:57:17;8.80;99.90
23069;DHT22;11702;50.856;4.348;2023-04-24T20:59:43;8.90;99.90
23069;DHT22;11702;50.856;4.348;2023-04-24T21:02:09;8.90;99.90
23069;DHT22;11702;50.856;4.348;2023-04-24T21:04:34;8.90;99.90
23069;DHT22;11702;50.856;4.348;2023-04-24T21:07:03;9.00;99.90
23069;DHT22;11702;50.856;4.348;2023-04-24T21:09:28;9.10;99.90
23069;DHT22;11702;50.856;4.348;2023-04-24T21:11:54;9.20;99.90
23069;DHT22;11702;50.856;4.348;2023-04-24T21:14:20;9.30;99.90
23069;DHT22;11702;50.856;4.348;2023-04-24T21:16:46;9.40;99.90
23069;DHT22;11702;50.856;4.348;2023-04-24T21:19:12;9.40;99.90
23069;DHT22;11702;50.856;4.348;2023-04-24T21:21:37;9.40;99.90
23069;DHT22;11702;50.856;4.348;2023-04-24T21:24:03;9.40;99.90
23069;DHT22;11702;50.856;4.348;2023-04-24T21:26:29;9.40;99.90
23069;DHT22;11702;50.856;4.348;2023-04-24T21:28:55;9.40;99.90
23069;DHT22;11702;50.856;4.348;2023-04-24T21:31:20;9.40;99.90
23069;DHT22;11702;50.856;4.348;2023-04-24T21:33:46;9.20;99.90
23069;DHT22;11702;50.856;4.348;2023-04-24T21:36:12;9.20;99.90
23069;DHT22;11702;50.856;4.348;2023-04-24T21:38:37;9.30;99.90
23069;DHT22;11702;50.856;4.348;2023-04-24T21:41:04;9.30;99.90
23069;DHT22;11702;50.856;4.348;2023-04-24T21:43:30;9.30;99.90
23069;DHT22;11702;50.856;4.348;2023-04-24T21:45:56;9.30;99.90
23069;DHT22;11702;50.856;4.348;2023-04-24T21:48:22;9.10;99.90
23069;DHT22;11702;50.856;4.348;2023-04-24T21:50:47;9.00;99.90
23069;DHT22;11702;50.856;4.348;2023-04-24T21:53:13;9.00;99.90
23069;DHT22;11702;50.856;4.348;2023-04-24T21:55:40;9.10;99.90
23069;DHT22;11702;50.856;4.348;2023-04-24T21:58:05;9.20;99.90
23069;DHT22;11702;50.856;4.348;2023-04-24T22:00:31;9.30;99.90
23069;DHT22;11702;50.856;4.348;2023-04-24T22:02:56;9.20;99.90
23069;DHT22;11702;50.856;4.348;2023-04-24T22:05:22;9.30;99.90
23069;DHT22;11702;50.856;4.348;2023-04-24T22:07:48;9.20;99.90
23069;DHT22;11702;50.856;4.348;2023-04-24T22:10:15;9.20;99.90
23069;DHT22;11702;50.856;4.348;2023-04-24T22:12:42;9.20;99.90
23069;DHT22;11702;50.856;4.348;2023-04-24T22:15:09;9.10;99.90
23069;DHT22;11702;50.856;4.348;2023-04-24T22:17:35;9.00;99.90
23069;DHT22;11702;50.856;4.348;2023-04-24T22:20:01;9.00;99.90
23069;DHT22;11702;50.856;4.348;2023-04-24T22:22:27;9.00;99.90
23069;DHT22;11702;50.856;4.348;2023-04-24T22:24:53;8.90;99.90
23069;DHT22;11702;50.856;4.348;2023-04-24T22:27:18;9.00;99.90
23069;DHT22;11702;50.856;4.348;2023-04-24T22:29:44;9.00;99.90
23069;DHT22;11702;50.856;4.348;2023-04-24T22:32:10;8.90;99.90
23069;DHT22;11702;50.856;4.348;2023-04-24T22:34:35;9.00;99.90
23069;DHT22;11702;50.856;4.348;2023-04-24T22:37:01;9.00;99.90
23069;DHT22;11702;50.856;4.348;2023-04-24T22:39:27;8.80;99.90
23069;DHT22;11702;50.856;4.348;2023-04-24T22:41:53;8.70;99.90
23069;DHT22;11702;50.856;4.348;2023-04-24T22:44:18;8.80;99.90
23069;DHT22;11702;50.856;4.348;2023-04-24T22:46:44;8.90;99.90
23069;DHT22;11702;50.856;4.348;2023-04-24T22:49:11;8.90;99.90
23069;DHT22;11702;50.856;4.348;2023-04-24T22:51:37;8.80;99.90
23069;DHT22;11702;50.856;4.348;2023-04-24T22:54:04;8.90;99.90
23069;DHT22;11702;50.856;4.348;2023-04-24T22:56:30;9.00;99.90
